Green Sea, SC (29545)

9:12 PM EDT on August 22, 2014 (GMT -0400)
HWY 9 BUS. WEST. | Change Station
CLOSE
Current Station
Personal Weather Station
Location: Loris, SC
Elevation: 99 ft
Nearby Weather Stations

Elev 99 ft 34.07 °N, 78.91 °W | Updated 3 seconds ago

Scattered Clouds
Scattered Clouds
81.1 °F
Feels Like 87 °F
N
0.0
Wind Variable Wind from South
Gusts 0.0 mph

Today
High -- | Low -- °F
--% Chance of Precip.
Yesterday
High -- | Low -- °F
Precip. -- in
6:42 AM 7:54 PM
Waning Crescent, 6% visible
Pressure 29.95 in
Visibility 10.0 miles
Clouds Scattered Clouds 6500 ft
Scattered Clouds 11000 ft
Heat Index 87 °F
Dew Point 75 °F
Humidity 81%
Rainfall 0.00 in
Snow Depth Not available.
UV 0 out of 12
Pollen 7.80 out of 12
Air Quality Not available.
Flu Activity Not available.
METAR KCPC 230055Z AUTO 08006KT 10SM SCT065 SCT110 28/23 A2995 RMK AO2 T02770230

More Conditions Fewer Conditions

Pressure 29.95 in
Visibility 10.0 miles
Clouds Scattered Clouds 6500 ft
Scattered Clouds 11000 ft
Heat Index 87 °F
Dew Point 75 °F
Humidity 81%
Rainfall 0.00 in
Snow Depth Not available.
UV 0 out of 12
Pollen 7.80 out of 12
Air Quality Not available.
Flu Activity Not available.
METAR KCPC 230055Z AUTO 08006KT 10SM SCT065 SCT110 28/23 A2995 RMK AO2 T02770230

More Conditions Fewer Conditions

10-Day Weather Forecast

Almanac

Astronomy

Aug. 22, 2014 Rise Set
Actual Time 6:42 AM EDT 7:54 PM EDT
Civil Twilight 6:16 AM EDT 8:20 PM EDT
Nautical Twilight 5:45 AM EDT 8:51 PM EDT
Astronomical Twilight 5:12 AM EDT 9:23 PM EDT
Moon 4:06 AM EDT (8/22) 5:59 PM EDT (8/22)
Length of Visible Light 14h 04m
Length of Day
13h 12m
Tomorrow will be 1m 57s shorter.
Waning Crescent, 6% of the Moon is Illuminated
Today
Waning Crescent
Aug 25
New
Sep 2
First Quarter
Sep 8
Full
Sep 15
Last Quarter

Today's Extremes

State Highs State Lows

Community

WunderPhotos

Upload Photos

1,746,337 photos uploaded!

WunderBlogs® & News

Nearby

Snow Depth

Station Depth Elevation
No new snow has been reported.

Earthquake Activity

City Distance Mag. Time & Date
No recent earthquake activity has been reported nearby.
Minimum magnitude displayed is 2.5.

Coastal Water Temperatures

Place Temperature
Springmaid Pier, SC 84.9 °F

Nearby Weather Stations